Brownsville, TN

1:26 PM CDT en Julio 28, 2014 (GMT -0500)
Crossroads Community (KTNBELLS3) Alt 367 ft | 35.74 °N, 89.12 °W | Change Station

Current weather conditions updated 14 minutes ago

Scattered Clouds
Nubes dispersas
82.2 ° F
Sensación térmica 84 ° F
N
4.7
Viento Variable Viento desde ONO

Hoy se prevé un día Mucho más frío que ayer.

Hoy
Alta -- | Baja -- ° F
--% Posibilidad de precipitaciones
Ayer
Alta -- | Baja -- ° F
Precip. -- pul
6:02 AM 8:04 PM
Creciente, 3% visible
Presión 30.05 pul
Visibilidad 10.0 Millas
Nubes Nubes dispersas 4000 ft
Índice de calor 84 ° F
Punto de rocío 64 ° F
Humedad 55%
Precipitaciones 0.00 pul
Espesor de la nieve No disponible.
UV 9 de una escala de 12
Polen 6.00 de una escala de 12
Calidad del aire No disponible.
Flu Activity No disponible.
METAR KMKL 281653Z 31008KT 10SM SCT040 26/16 A3007 RMK AO2 SLP176 T02610161

More Conditions Fewer Conditions

Presión 30.05 pul
Visibilidad 10.0 Millas
Nubes Nubes dispersas 4000 ft
Índice de calor 84 ° F
Punto de rocío 64 ° F
Humedad 55%
Precipitaciones 0.00 pul
Espesor de la nieve No disponible.
UV 9 de una escala de 12
Polen 6.00 de una escala de 12
Calidad del aire No disponible.
Flu Activity No disponible.
METAR KMKL 281653Z 31008KT 10SM SCT040 26/16 A3007 RMK AO2 SLP176 T02610161

More Conditions Fewer Conditions

10-Day Weather Forecast

Almanac

Astronomía

Jul. 28, 2014 Salida Puesta
Hora real 6:02 AM CDT 8:04 PM CDT
Crepúsculo civil 5:33 AM CDT 8:32 PM CDT
Crepúsculo náutico 4:59 AM CDT 9:07 PM CDT
Crepúsculo astronómico 4:22 AM CDT 9:44 PM CDT
Luna 7:38 AM CDT 8:52 PM CDT
Horas de luz 14h 58m
Horas de luz
14h 02m
Tomorrow will be 1m 36s shorter.
Creciente, 3% of the Moon is Illuminated
Hoy
Creciente
Ago 3
Cuarto creciente
Ago 10
Luna llena
Ago 17
Cuarto menguante
Ago 25
Nueva

Extremos de hoy

Máximos del estado Bajos del estado

Community

WunderPhotos

Upload Photos

1,738,430 ¡fotos cargadas!

WunderBlogs® & News

Nearby

Grosos de nieve

Estación Profundido Altura
No tenemos constancia de nieve nueva.

Actividad de terremotos

Ciudad Distance Mag. Tiempo y dato
No hay informes recientes de la actividad sísmica.
Magnitud mínima muestra es 2,5.

Temperaturas de aguas costeras

Lugar Temperatura
Sin partes meteorológicos de las estaciones

Estaciones meteorológicas cercanas

Ubicación de la estación Temp. Índice de calor Punto de rocío Humedad Viento Precip. Alt Actualizado Tipo
Crossroads Community, Bells, TN 82.2 ° F 84 ° F 64 ° F 55% ONO  a  4.7 mph - / hr 367 ft 1:12 PM CDT Normal
Pecan Hill Farm, Henning, TN 85.1 ° F 88 ° F 67 ° F 55% ONO  a  0.0 mph 0.00 pul / hr 300 ft 1:26 PM CDT Rapid Fire
Union University, Jackson, TN 82.8 ° F 83 ° F 59 ° F 44% ONO  a  1.0 mph - / hr 476 ft 1:11 PM CDT Normal
DW1566, Humboldt, TN 83.3 ° F 86 ° F 67 ° F 58% NO  a  9.8 mph 0.00 pul / hr 410 ft 1:26 PM CDT Rapid Fire

Show More Stations Show Fewer Stations